sensor_id;sensor_type;location;lat;lon;timestamp;P1;durP1;ratioP1;P2;durP2;ratioP2
10920;SDS011;5513;50.580;8.818;2022-11-09T00:02:00;6.30;;;3.87;;
10920;SDS011;5513;50.580;8.818;2022-11-09T00:04:32;4.67;;;3.70;;
10920;SDS011;5513;50.580;8.818;2022-11-09T00:07:03;5.43;;;3.50;;
10920;SDS011;5513;50.580;8.818;2022-11-09T00:09:31;5.53;;;3.90;;
10920;SDS011;5513;50.580;8.818;2022-11-09T00:12:00;6.93;;;4.07;;
10920;SDS011;5513;50.580;8.818;2022-11-09T00:14:30;9.90;;;3.97;;
10920;SDS011;5513;50.580;8.818;2022-11-09T00:16:58;6.87;;;4.10;;
10920;SDS011;5513;50.580;8.818;2022-11-09T00:19:27;7.47;;;3.80;;
10920;SDS011;5513;50.580;8.818;2022-11-09T00:21:57;6.73;;;4.13;;
10920;SDS011;5513;50.580;8.818;2022-11-09T00:24:28;5.43;;;3.93;;
10920;SDS011;5513;50.580;8.818;2022-11-09T00:26:56;6.20;;;3.67;;
10920;SDS011;5513;50.580;8.818;2022-11-09T00:29:25;6.97;;;3.63;;
10920;SDS011;5513;50.580;8.818;2022-11-09T00:31:56;9.07;;;4.23;;
10920;SDS011;5513;50.580;8.818;2022-11-09T00:34:24;4.90;;;3.97;;
10920;SDS011;5513;50.580;8.818;2022-11-09T00:36:53;7.40;;;3.87;;
10920;SDS011;5513;50.580;8.818;2022-11-09T00:39:23;8.70;;;4.20;;
10920;SDS011;5513;50.580;8.818;2022-11-09T00:41:51;7.87;;;3.83;;
10920;SDS011;5513;50.580;8.818;2022-11-09T00:44:20;8.53;;;4.40;;
10920;SDS011;5513;50.580;8.818;2022-11-09T00:46:48;5.50;;;4.13;;
10920;SDS011;5513;50.580;8.818;2022-11-09T00:49:16;7.23;;;4.53;;
10920;SDS011;5513;50.580;8.818;2022-11-09T00:51:45;7.23;;;4.23;;
10920;SDS011;5513;50.580;8.818;2022-11-09T00:54:13;7.57;;;4.13;;
10920;SDS011;5513;50.580;8.818;2022-11-09T00:56:44;6.33;;;4.03;;
10920;SDS011;5513;50.580;8.818;2022-11-09T00:59:12;7.30;;;4.43;;
10920;SDS011;5513;50.580;8.818;2022-11-09T01:01:41;9.03;;;4.37;;
10920;SDS011;5513;50.580;8.818;2022-11-09T01:04:09;6.10;;;4.27;;
10920;SDS011;5513;50.580;8.818;2022-11-09T01:06:38;7.83;;;4.70;;
10920;SDS011;5513;50.580;8.818;2022-11-09T01:09:06;8.30;;;4.60;;
10920;SDS011;5513;50.580;8.818;2022-11-09T01:11:35;7.53;;;4.57;;
10920;SDS011;5513;50.580;8.818;2022-11-09T01:14:05;9.70;;;4.73;;
10920;SDS011;5513;50.580;8.818;2022-11-09T01:16:34;6.87;;;4.43;;
10920;SDS011;5513;50.580;8.818;2022-11-09T01:19:02;10.30;;;4.87;;
10920;SDS011;5513;50.580;8.818;2022-11-09T01:21:30;6.47;;;4.40;;
10920;SDS011;5513;50.580;8.818;2022-11-09T01:23:59;7.63;;;4.67;;
10920;SDS011;5513;50.580;8.818;2022-11-09T01:26:28;6.23;;;4.47;;
10920;SDS011;5513;50.580;8.818;2022-11-09T01:28:59;8.47;;;4.97;;
10920;SDS011;5513;50.580;8.818;2022-11-09T01:31:28;6.80;;;4.67;;
10920;SDS011;5513;50.580;8.818;2022-11-09T01:33:57;7.03;;;5.00;;
10920;SDS011;5513;50.580;8.818;2022-11-09T01:36:27;7.63;;;4.83;;
10920;SDS011;5513;50.580;8.818;2022-11-09T01:38:57;11.63;;;5.47;;
10920;SDS011;5513;50.580;8.818;2022-11-09T01:41:26;8.90;;;5.03;;
10920;SDS011;5513;50.580;8.818;2022-11-09T01:44:05;10.20;;;5.07;;
10920;SDS011;5513;50.580;8.818;2022-11-09T01:46:42;9.90;;;5.60;;
10920;SDS011;5513;50.580;8.818;2022-11-09T01:49:18;11.13;;;6.03;;
10920;SDS011;5513;50.580;8.818;2022-11-09T01:51:51;7.90;;;5.90;;
10920;SDS011;5513;50.580;8.818;2022-11-09T01:54:26;9.00;;;5.63;;
10920;SDS011;5513;50.580;8.818;2022-11-09T01:56:57;8.57;;;6.00;;
10920;SDS011;5513;50.580;8.818;2022-11-09T01:59:32;12.50;;;6.27;;
10920;SDS011;5513;50.580;8.818;2022-11-09T02:02:07;12.40;;;6.20;;
10920;SDS011;5513;50.580;8.818;2022-11-09T02:04:37;8.07;;;6.17;;
10920;SDS011;5513;50.580;8.818;2022-11-09T02:07:08;10.53;;;7.07;;
10920;SDS011;5513;50.580;8.818;2022-11-09T02:09:38;9.37;;;6.80;;
10920;SDS011;5513;50.580;8.818;2022-11-09T02:12:12;9.27;;;6.37;;
10920;SDS011;5513;50.580;8.818;2022-11-09T02:14:41;9.20;;;7.13;;
10920;SDS011;5513;50.580;8.818;2022-11-09T02:17:12;9.00;;;7.23;;
10920;SDS011;5513;50.580;8.818;2022-11-09T02:19:40;12.83;;;8.23;;
10920;SDS011;5513;50.580;8.818;2022-11-09T02:22:11;13.70;;;9.20;;
10920;SDS011;5513;50.580;8.818;2022-11-09T02:24:40;16.27;;;10.90;;
10920;SDS011;5513;50.580;8.818;2022-11-09T02:27:08;16.37;;;12.07;;
10920;SDS011;5513;50.580;8.818;2022-11-09T02:29:37;13.80;;;11.77;;
10920;SDS011;5513;50.580;8.818;2022-11-09T02:32:10;16.17;;;11.77;;
10920;SDS011;5513;50.580;8.818;2022-11-09T02:34:41;14.63;;;12.27;;
10920;SDS011;5513;50.580;8.818;2022-11-09T02:37:11;16.53;;;13.30;;
10920;SDS011;5513;50.580;8.818;2022-11-09T02:39:39;17.37;;;12.87;;
10920;SDS011;5513;50.580;8.818;2022-11-09T02:42:09;15.43;;;12.73;;
10920;SDS011;5513;50.580;8.818;2022-11-09T02:44:48;17.83;;;14.03;;
10920;SDS011;5513;50.580;8.818;2022-11-09T02:47:20;16.93;;;14.30;;
10920;SDS011;5513;50.580;8.818;2022-11-09T02:49:49;20.00;;;15.00;;
10920;SDS011;5513;50.580;8.818;2022-11-09T02:52:19;20.03;;;15.43;;
10920;SDS011;5513;50.580;8.818;2022-11-09T02:54:48;19.83;;;15.23;;
10920;SDS011;5513;50.580;8.818;2022-11-09T02:57:16;21.07;;;16.37;;
10920;SDS011;5513;50.580;8.818;2022-11-09T02:59:45;21.37;;;15.13;;
10920;SDS011;5513;50.580;8.818;2022-11-09T03:02:13;22.67;;;17.43;;
10920;SDS011;5513;50.580;8.818;2022-11-09T03:04:42;25.27;;;17.00;;
10920;SDS011;5513;50.580;8.818;2022-11-09T03:07:11;24.20;;;17.83;;
10920;SDS011;5513;50.580;8.818;2022-11-09T03:09:41;23.87;;;19.53;;
10920;SDS011;5513;50.580;8.818;2022-11-09T03:12:11;26.63;;;20.83;;
10920;SDS011;5513;50.580;8.818;2022-11-09T03:14:56;29.93;;;21.13;;
10920;SDS011;5513;50.580;8.818;2022-11-09T03:17:30;27.90;;;20.73;;
10920;SDS011;5513;50.580;8.818;2022-11-09T03:19:59;27.30;;;20.20;;
10920;SDS011;5513;50.580;8.818;2022-11-09T03:22:28;29.60;;;21.37;;
10920;SDS011;5513;50.580;8.818;2022-11-09T03:24:59;30.10;;;22.07;;
10920;SDS011;5513;50.580;8.818;2022-11-09T03:27:27;32.30;;;24.03;;
10920;SDS011;5513;50.580;8.818;2022-11-09T03:29:55;27.23;;;22.10;;
10920;SDS011;5513;50.580;8.818;2022-11-09T03:32:24;29.60;;;21.63;;
10920;SDS011;5513;50.580;8.818;2022-11-09T03:34:53;32.77;;;22.30;;
10920;SDS011;5513;50.580;8.818;2022-11-09T03:37:22;36.17;;;23.43;;
10920;SDS011;5513;50.580;8.818;2022-11-09T03:39:50;30.53;;;22.03;;
10920;SDS011;5513;50.580;8.818;2022-11-09T03:42:20;30.30;;;21.90;;
10920;SDS011;5513;50.580;8.818;2022-11-09T03:44:49;32.80;;;23.23;;
10920;SDS011;5513;50.580;8.818;2022-11-09T03:47:18;35.90;;;23.57;;
10920;SDS011;5513;50.580;8.818;2022-11-09T03:49:47;34.43;;;22.63;;
10920;SDS011;5513;50.580;8.818;2022-11-09T03:52:15;30.17;;;21.30;;
10920;SDS011;5513;50.580;8.818;2022-11-09T03:54:43;30.73;;;22.67;;
10920;SDS011;5513;50.580;8.818;2022-11-09T03:57:12;29.87;;;22.20;;
10920;SDS011;5513;50.580;8.818;2022-11-09T03:59:41;33.60;;;22.77;;
10920;SDS011;5513;50.580;8.818;2022-11-09T04:02:11;30.83;;;22.13;;
10920;SDS011;5513;50.580;8.818;2022-11-09T04:04:39;32.53;;;22.17;;
10920;SDS011;5513;50.580;8.818;2022-11-09T04:07:09;32.13;;;22.37;;
10920;SDS011;5513;50.580;8.818;2022-11-09T04:09:38;30.27;;;22.93;;
10920;SDS011;5513;50.580;8.818;2022-11-09T04:12:06;29.60;;;22.43;;
10920;SDS011;5513;50.580;8.818;2022-11-09T04:14:35;29.20;;;21.97;;
10920;SDS011;5513;50.580;8.818;2022-11-09T04:17:06;30.40;;;21.97;;
10920;SDS011;5513;50.580;8.818;2022-11-09T04:19:34;30.83;;;21.77;;
10920;SDS011;5513;50.580;8.818;2022-11-09T04:22:03;31.00;;;22.80;;
10920;SDS011;5513;50.580;8.818;2022-11-09T04:24:31;32.47;;;21.90;;
10920;SDS011;5513;50.580;8.818;2022-11-09T04:27:00;28.37;;;22.23;;
10920;SDS011;5513;50.580;8.818;2022-11-09T04:29:29;26.47;;;21.23;;
10920;SDS011;5513;50.580;8.818;2022-11-09T04:31:57;29.90;;;22.37;;
10920;SDS011;5513;50.580;8.818;2022-11-09T04:34:29;28.93;;;22.33;;
10920;SDS011;5513;50.580;8.818;2022-11-09T04:36:57;26.23;;;21.17;;
10920;SDS011;5513;50.580;8.818;2022-11-09T04:39:26;26.87;;;20.50;;
10920;SDS011;5513;50.580;8.818;2022-11-09T04:41:54;25.17;;;20.80;;
10920;SDS011;5513;50.580;8.818;2022-11-09T04:44:22;24.40;;;19.60;;
10920;SDS011;5513;50.580;8.818;2022-11-09T04:46:52;22.87;;;19.63;;
10920;SDS011;5513;50.580;8.818;2022-11-09T04:49:20;24.57;;;18.70;;
10920;SDS011;5513;50.580;8.818;2022-11-09T04:51:50;19.77;;;17.63;;
10920;SDS011;5513;50.580;8.818;2022-11-09T04:54:20;23.20;;;17.03;;
10920;SDS011;5513;50.580;8.818;2022-11-09T04:56:48;22.40;;;18.07;;
10920;SDS011;5513;50.580;8.818;2022-11-09T04:59:17;22.27;;;16.83;;
10920;SDS011;5513;50.580;8.818;2022-11-09T05:01:45;23.80;;;18.37;;
10920;SDS011;5513;50.580;8.818;2022-11-09T05:04:14;21.23;;;17.60;;
10920;SDS011;5513;50.580;8.818;2022-11-09T05:06:42;19.97;;;17.63;;
10920;SDS011;5513;50.580;8.818;2022-11-09T05:09:12;20.83;;;17.77;;
10920;SDS011;5513;50.580;8.818;2022-11-09T05:11:41;20.93;;;16.40;;
10920;SDS011;5513;50.580;8.818;2022-11-09T05:14:09;19.67;;;16.40;;
10920;SDS011;5513;50.580;8.818;2022-11-09T05:16:38;21.50;;;16.40;;
10920;SDS011;5513;50.580;8.818;2022-11-09T05:19:07;18.73;;;16.03;;
10920;SDS011;5513;50.580;8.818;2022-11-09T05:21:35;23.23;;;16.97;;
10920;SDS011;5513;50.580;8.818;2022-11-09T05:24:04;23.77;;;17.80;;
10920;SDS011;5513;50.580;8.818;2022-11-09T05:26:34;21.43;;;18.53;;
10920;SDS011;5513;50.580;8.818;2022-11-09T05:29:05;20.20;;;17.77;;
10920;SDS011;5513;50.580;8.818;2022-11-09T05:31:35;26.40;;;20.00;;
10920;SDS011;5513;50.580;8.818;2022-11-09T05:34:04;22.80;;;19.67;;
10920;SDS011;5513;50.580;8.818;2022-11-09T05:36:34;21.87;;;17.70;;
10920;SDS011;5513;50.580;8.818;2022-11-09T05:39:04;20.83;;;18.60;;
10920;SDS011;5513;50.580;8.818;2022-11-09T05:41:35;24.50;;;19.67;;
10920;SDS011;5513;50.580;8.818;2022-11-09T05:44:03;25.43;;;19.07;;
10920;SDS011;5513;50.580;8.818;2022-11-09T05:46:32;21.63;;;18.67;;
10920;SDS011;5513;50.580;8.818;2022-11-09T05:49:01;23.17;;;18.80;;
10920;SDS011;5513;50.580;8.818;2022-11-09T05:51:29;20.50;;;16.90;;
10920;SDS011;5513;50.580;8.818;2022-11-09T05:53:58;18.70;;;16.17;;
10920;SDS011;5513;50.580;8.818;2022-11-09T05:56:26;18.57;;;15.97;;
10920;SDS011;5513;50.580;8.818;2022-11-09T05:58:56;17.40;;;15.47;;
10920;SDS011;5513;50.580;8.818;2022-11-09T06:01:24;17.30;;;13.73;;
10920;SDS011;5513;50.580;8.818;2022-11-09T06:03:53;18.77;;;16.10;;
10920;SDS011;5513;50.580;8.818;2022-11-09T06:06:22;17.30;;;15.50;;
10920;SDS011;5513;50.580;8.818;2022-11-09T06:08:51;19.90;;;16.20;;
10920;SDS011;5513;50.580;8.818;2022-11-09T06:11:20;19.70;;;17.17;;
10920;SDS011;5513;50.580;8.818;2022-11-09T06:13:50;21.40;;;17.87;;
10920;SDS011;5513;50.580;8.818;2022-11-09T06:16:20;20.07;;;16.83;;
10920;SDS011;5513;50.580;8.818;2022-11-09T06:18:50;19.30;;;16.87;;
10920;SDS011;5513;50.580;8.818;2022-11-09T06:21:18;17.63;;;15.73;;
10920;SDS011;5513;50.580;8.818;2022-11-09T06:23:47;18.23;;;15.50;;
10920;SDS011;5513;50.580;8.818;2022-11-09T06:26:15;15.73;;;14.03;;
10920;SDS011;5513;50.580;8.818;2022-11-09T06:28:44;17.67;;;14.60;;
10920;SDS011;5513;50.580;8.818;2022-11-09T06:31:15;17.93;;;15.10;;
10920;SDS011;5513;50.580;8.818;2022-11-09T06:33:45;18.90;;;13.93;;
10920;SDS011;5513;50.580;8.818;2022-11-09T06:36:13;17.17;;;13.40;;
10920;SDS011;5513;50.580;8.818;2022-11-09T06:38:42;15.17;;;13.57;;
10920;SDS011;5513;50.580;8.818;2022-11-09T06:41:10;17.10;;;14.87;;
10920;SDS011;5513;50.580;8.818;2022-11-09T06:43:39;15.87;;;13.87;;
10920;SDS011;5513;50.580;8.818;2022-11-09T06:46:09;16.60;;;14.70;;
10920;SDS011;5513;50.580;8.818;2022-11-09T06:48:40;16.93;;;14.97;;
10920;SDS011;5513;50.580;8.818;2022-11-09T06:51:10;18.20;;;15.37;;
10920;SDS011;5513;50.580;8.818;2022-11-09T06:53:38;16.77;;;15.07;;
10920;SDS011;5513;50.580;8.818;2022-11-09T06:56:07;16.03;;;14.37;;
10920;SDS011;5513;50.580;8.818;2022-11-09T06:58:36;17.07;;;15.27;;
10920;SDS011;5513;50.580;8.818;2022-11-09T07:01:05;16.57;;;14.47;;
10920;SDS011;5513;50.580;8.818;2022-11-09T07:03:36;15.73;;;14.10;;
10920;SDS011;5513;50.580;8.818;2022-11-09T07:06:05;16.97;;;15.17;;
10920;SDS011;5513;50.580;8.818;2022-11-09T07:08:37;20.17;;;16.10;;
10920;SDS011;5513;50.580;8.818;2022-11-09T07:11:07;16.37;;;14.77;;
10920;SDS011;5513;50.580;8.818;2022-11-09T07:13:37;17.00;;;15.20;;
10920;SDS011;5513;50.580;8.818;2022-11-09T07:16:06;18.80;;;15.17;;
10920;SDS011;5513;50.580;8.818;2022-11-09T07:18:37;15.87;;;14.17;;
10920;SDS011;5513;50.580;8.818;2022-11-09T07:21:05;18.07;;;16.10;;
10920;SDS011;5513;50.580;8.818;2022-11-09T07:23:41;20.43;;;17.40;;
10920;SDS011;5513;50.580;8.818;2022-11-09T07:26:10;23.60;;;19.83;;
10920;SDS011;5513;50.580;8.818;2022-11-09T07:28:39;17.83;;;15.93;;
10920;SDS011;5513;50.580;8.818;2022-11-09T07:31:07;18.03;;;16.13;;
10920;SDS011;5513;50.580;8.818;2022-11-09T07:33:36;17.77;;;15.00;;
10920;SDS011;5513;50.580;8.818;2022-11-09T07:36:05;17.23;;;15.43;;
10920;SDS011;5513;50.580;8.818;2022-11-09T07:38:34;20.87;;;18.67;;
10920;SDS011;5513;50.580;8.818;2022-11-09T07:41:03;17.37;;;15.30;;
10920;SDS011;5513;50.580;8.818;2022-11-09T07:43:32;17.93;;;16.03;;
10920;SDS011;5513;50.580;8.818;2022-11-09T07:46:01;16.37;;;14.60;;
10920;SDS011;5513;50.580;8.818;2022-11-09T07:48:30;16.77;;;15.00;;
10920;SDS011;5513;50.580;8.818;2022-11-09T07:51:00;17.17;;;15.07;;
10920;SDS011;5513;50.580;8.818;2022-11-09T07:53:29;16.30;;;14.50;;
10920;SDS011;5513;50.580;8.818;2022-11-09T07:56:00;17.00;;;14.63;;
10920;SDS011;5513;50.580;8.818;2022-11-09T07:58:33;16.27;;;14.50;;
10920;SDS011;5513;50.580;8.818;2022-11-09T08:01:05;15.60;;;13.80;;
10920;SDS011;5513;50.580;8.818;2022-11-09T08:03:36;16.20;;;13.87;;
10920;SDS011;5513;50.580;8.818;2022-11-09T08:06:05;20.03;;;14.53;;
10920;SDS011;5513;50.580;8.818;2022-11-09T08:08:35;17.37;;;14.60;;
10920;SDS011;5513;50.580;8.818;2022-11-09T08:11:03;18.00;;;15.20;;
10920;SDS011;5513;50.580;8.818;2022-11-09T08:13:33;19.00;;;15.60;;
10920;SDS011;5513;50.580;8.818;2022-11-09T08:16:02;17.83;;;15.93;;
10920;SDS011;5513;50.580;8.818;2022-11-09T08:18:31;18.67;;;15.70;;
10920;SDS011;5513;50.580;8.818;2022-11-09T08:21:00;18.10;;;15.67;;
10920;SDS011;5513;50.580;8.818;2022-11-09T08:23:28;19.13;;;15.37;;
10920;SDS011;5513;50.580;8.818;2022-11-09T08:26:00;18.43;;;15.43;;
10920;SDS011;5513;50.580;8.818;2022-11-09T08:28:29;20.90;;;16.00;;
10920;SDS011;5513;50.580;8.818;2022-11-09T08:31:01;20.00;;;15.97;;
10920;SDS011;5513;50.580;8.818;2022-11-09T08:33:33;16.47;;;14.50;;
10920;SDS011;5513;50.580;8.818;2022-11-09T08:36:07;17.67;;;15.30;;
10920;SDS011;5513;50.580;8.818;2022-11-09T08:38:37;17.63;;;15.70;;
10920;SDS011;5513;50.580;8.818;2022-11-09T08:41:05;17.83;;;15.93;;
10920;SDS011;5513;50.580;8.818;2022-11-09T08:43:38;20.30;;;15.97;;
10920;SDS011;5513;50.580;8.818;2022-11-09T08:46:11;21.07;;;16.60;;
10920;SDS011;5513;50.580;8.818;2022-11-09T08:48:39;20.27;;;17.20;;
10920;SDS011;5513;50.580;8.818;2022-11-09T08:51:08;20.93;;;17.23;;
10920;SDS011;5513;50.580;8.818;2022-11-09T08:53:37;19.93;;;16.57;;
10920;SDS011;5513;50.580;8.818;2022-11-09T08:56:06;20.30;;;16.77;;
10920;SDS011;5513;50.580;8.818;2022-11-09T08:58:35;21.53;;;17.40;;
10920;SDS011;5513;50.580;8.818;2022-11-09T09:01:05;21.07;;;17.33;;
10920;SDS011;5513;50.580;8.818;2022-11-09T09:03:40;21.00;;;17.37;;
10920;SDS011;5513;50.580;8.818;2022-11-09T09:06:11;19.87;;;17.77;;
10920;SDS011;5513;50.580;8.818;2022-11-09T09:08:39;19.20;;;17.20;;
10920;SDS011;5513;50.580;8.818;2022-11-09T09:11:08;20.30;;;17.03;;
10920;SDS011;5513;50.580;8.818;2022-11-09T09:13:37;18.87;;;16.20;;
10920;SDS011;5513;50.580;8.818;2022-11-09T09:16:09;20.67;;;16.83;;
10920;SDS011;5513;50.580;8.818;2022-11-09T09:18:43;18.83;;;15.20;;
10920;SDS011;5513;50.580;8.818;2022-11-09T09:21:15;19.17;;;15.40;;
10920;SDS011;5513;50.580;8.818;2022-11-09T09:23:45;18.03;;;14.77;;
10920;SDS011;5513;50.580;8.818;2022-11-09T09:26:14;15.30;;;13.40;;
10920;SDS011;5513;50.580;8.818;2022-11-09T09:28:42;14.97;;;13.23;;
10920;SDS011;5513;50.580;8.818;2022-11-09T09:31:11;15.80;;;13.10;;
10920;SDS011;5513;50.580;8.818;2022-11-09T09:33:45;13.97;;;12.43;;
10920;SDS011;5513;50.580;8.818;2022-11-09T09:36:16;14.40;;;12.37;;
10920;SDS011;5513;50.580;8.818;2022-11-09T09:38:48;14.83;;;12.90;;
10920;SDS011;5513;50.580;8.818;2022-11-09T09:41:20;15.10;;;12.07;;
10920;SDS011;5513;50.580;8.818;2022-11-09T09:44:06;11.90;;;10.67;;
10920;SDS011;5513;50.580;8.818;2022-11-09T09:46:44;13.87;;;11.47;;
10920;SDS011;5513;50.580;8.818;2022-11-09T09:49:19;12.00;;;10.80;;
10920;SDS011;5513;50.580;8.818;2022-11-09T09:51:54;13.90;;;10.97;;
10920;SDS011;5513;50.580;8.818;2022-11-09T09:54:29;12.00;;;10.87;;
10920;SDS011;5513;50.580;8.818;2022-11-09T09:57:03;12.33;;;11.13;;
10920;SDS011;5513;50.580;8.818;2022-11-09T09:59:33;12.50;;;11.20;;
10920;SDS011;5513;50.580;8.818;2022-11-09T10:02:09;12.50;;;11.27;;
10920;SDS011;5513;50.580;8.818;2022-11-09T10:04:46;11.40;;;10.23;;
10920;SDS011;5513;50.580;8.818;2022-11-09T10:07:17;11.00;;;9.67;;
10920;SDS011;5513;50.580;8.818;2022-11-09T10:12:50;10.50;;;9.40;;
10920;SDS011;5513;50.580;8.818;2022-11-09T10:15:32;9.20;;;8.23;;
10920;SDS011;5513;50.580;8.818;2022-11-09T10:18:18;9.50;;;8.50;;
10920;SDS011;5513;50.580;8.818;2022-11-09T10:21:10;9.17;;;8.27;;
10920;SDS011;5513;50.580;8.818;2022-11-09T10:24:03;8.30;;;6.90;;
10920;SDS011;5513;50.580;8.818;2022-11-09T10:26:40;8.57;;;6.60;;
10920;SDS011;5513;50.580;8.818;2022-11-09T10:29:15;7.20;;;5.93;;
10920;SDS011;5513;50.580;8.818;2022-11-09T10:31:49;6.20;;;5.60;;
10920;SDS011;5513;50.580;8.818;2022-11-09T10:34:20;6.40;;;5.60;;
10920;SDS011;5513;50.580;8.818;2022-11-09T10:37:00;6.10;;;5.50;;
10920;SDS011;5513;50.580;8.818;2022-11-09T10:39:36;6.77;;;5.10;;
10920;SDS011;5513;50.580;8.818;2022-11-09T10:42:09;6.63;;;5.37;;
10920;SDS011;5513;50.580;8.818;2022-11-09T10:44:38;6.80;;;4.63;;
10920;SDS011;5513;50.580;8.818;2022-11-09T10:47:07;5.77;;;5.13;;
10920;SDS011;5513;50.580;8.818;2022-11-09T10:49:38;6.63;;;4.80;;
10920;SDS011;5513;50.580;8.818;2022-11-09T10:55:16;5.57;;;4.57;;
10920;SDS011;5513;50.580;8.818;2022-11-09T10:57:54;5.53;;;4.30;;
10920;SDS011;5513;50.580;8.818;2022-11-09T11:00:26;5.90;;;4.30;;
10920;SDS011;5513;50.580;8.818;2022-11-09T11:02:54;6.13;;;4.30;;
10920;SDS011;5513;50.580;8.818;2022-11-09T11:05:24;13.90;;;8.67;;
10920;SDS011;5513;50.580;8.818;2022-11-09T11:08:24;5.23;;;3.87;;
10920;SDS011;5513;50.580;8.818;2022-11-09T11:11:19;3.90;;;3.50;;
10920;SDS011;5513;50.580;8.818;2022-11-09T11:14:09;6.30;;;4.40;;
10920;SDS011;5513;50.580;8.818;2022-11-09T11:16:48;4.37;;;3.23;;
10920;SDS011;5513;50.580;8.818;2022-11-09T11:19:31;3.93;;;3.03;;
10920;SDS011;5513;50.580;8.818;2022-11-09T11:22:08;4.80;;;3.00;;
10920;SDS011;5513;50.580;8.818;2022-11-09T11:24:57;5.50;;;2.60;;
10920;SDS011;5513;50.580;8.818;2022-11-09T11:27:27;2.90;;;2.20;;
10920;SDS011;5513;50.580;8.818;2022-11-09T11:30:05;4.87;;;2.60;;
10920;SDS011;5513;50.580;8.818;2022-11-09T11:32:38;6.00;;;3.80;;
10920;SDS011;5513;50.580;8.818;2022-11-09T11:35:15;8.00;;;4.60;;
10920;SDS011;5513;50.580;8.818;2022-11-09T11:37:52;6.73;;;4.63;;
10920;SDS011;5513;50.580;8.818;2022-11-09T11:40:31;2.73;;;1.70;;
10920;SDS011;5513;50.580;8.818;2022-11-09T11:46:16;4.93;;;1.70;;
10920;SDS011;5513;50.580;8.818;2022-11-09T11:51:57;2.63;;;1.30;;
10920;SDS011;5513;50.580;8.818;2022-11-09T11:54:35;2.40;;;1.30;;
10920;SDS011;5513;50.580;8.818;2022-11-09T11:57:13;3.80;;;1.43;;
10920;SDS011;5513;50.580;8.818;2022-11-09T11:59:58;4.73;;;1.60;;
10920;SDS011;5513;50.580;8.818;2022-11-09T12:05:47;2.80;;;1.43;;
10920;SDS011;5513;50.580;8.818;2022-11-09T12:08:26;2.50;;;1.50;;
10920;SDS011;5513;50.580;8.818;2022-11-09T12:11:05;2.40;;;1.30;;
10920;SDS011;5513;50.580;8.818;2022-11-09T12:13:47;3.33;;;1.60;;
10920;SDS011;5513;50.580;8.818;2022-11-09T12:16:28;2.20;;;1.40;;
10920;SDS011;5513;50.580;8.818;2022-11-09T12:19:05;4.00;;;1.57;;
10920;SDS011;5513;50.580;8.818;2022-11-09T12:22:03;5.20;;;2.60;;
10920;SDS011;5513;50.580;8.818;2022-11-09T12:24:38;3.33;;;1.90;;
10920;SDS011;5513;50.580;8.818;2022-11-09T12:27:27;4.07;;;1.80;;
10920;SDS011;5513;50.580;8.818;2022-11-09T12:30:13;3.20;;;1.60;;
10920;SDS011;5513;50.580;8.818;2022-11-09T12:32:45;4.17;;;1.90;;
10920;SDS011;5513;50.580;8.818;2022-11-09T12:35:23;4.23;;;1.80;;
10920;SDS011;5513;50.580;8.818;2022-11-09T12:37:59;5.00;;;1.67;;
10920;SDS011;5513;50.580;8.818;2022-11-09T12:40:32;3.23;;;1.80;;
10920;SDS011;5513;50.580;8.818;2022-11-09T12:43:04;2.73;;;1.97;;
10920;SDS011;5513;50.580;8.818;2022-11-09T12:45:45;3.73;;;1.63;;
10920;SDS011;5513;50.580;8.818;2022-11-09T12:48:20;5.80;;;1.70;;
10920;SDS011;5513;50.580;8.818;2022-11-09T12:50:52;4.83;;;2.00;;
10920;SDS011;5513;50.580;8.818;2022-11-09T12:53:21;2.87;;;1.80;;
10920;SDS011;5513;50.580;8.818;2022-11-09T12:55:53;4.30;;;1.70;;
10920;SDS011;5513;50.580;8.818;2022-11-09T12:58:28;4.17;;;1.70;;
10920;SDS011;5513;50.580;8.818;2022-11-09T13:01:02;3.77;;;1.80;;
10920;SDS011;5513;50.580;8.818;2022-11-09T13:03:33;4.40;;;1.80;;
10920;SDS011;5513;50.580;8.818;2022-11-09T13:06:10;2.20;;;1.50;;
10920;SDS011;5513;50.580;8.818;2022-11-09T13:11:33;3.23;;;1.40;;
10920;SDS011;5513;50.580;8.818;2022-11-09T13:23:23;3.03;;;1.37;;
10920;SDS011;5513;50.580;8.818;2022-11-09T13:29:24;3.87;;;1.50;;
10920;SDS011;5513;50.580;8.818;2022-11-09T13:32:01;2.93;;;1.80;;
10920;SDS011;5513;50.580;8.818;2022-11-09T13:34:39;2.67;;;1.40;;
10920;SDS011;5513;50.580;8.818;2022-11-09T13:43:18;4.40;;;1.77;;
10920;SDS011;5513;50.580;8.818;2022-11-09T13:45:50;3.47;;;1.73;;
10920;SDS011;5513;50.580;8.818;2022-11-09T13:48:23;3.23;;;1.53;;
10920;SDS011;5513;50.580;8.818;2022-11-09T13:51:02;3.20;;;1.60;;
10920;SDS011;5513;50.580;8.818;2022-11-09T13:56:20;2.23;;;1.40;;
10920;SDS011;5513;50.580;8.818;2022-11-09T13:58:53;2.73;;;1.40;;
10920;SDS011;5513;50.580;8.818;2022-11-09T14:01:27;2.93;;;1.53;;
10920;SDS011;5513;50.580;8.818;2022-11-09T14:04:02;4.67;;;1.70;;
10920;SDS011;5513;50.580;8.818;2022-11-09T14:06:30;4.63;;;1.60;;
10920;SDS011;5513;50.580;8.818;2022-11-09T14:09:01;4.03;;;1.63;;
10920;SDS011;5513;50.580;8.818;2022-11-09T14:14:44;5.63;;;1.80;;
10920;SDS011;5513;50.580;8.818;2022-11-09T14:17:36;4.93;;;1.40;;
10920;SDS011;5513;50.580;8.818;2022-11-09T14:20:16;4.67;;;1.67;;
10920;SDS011;5513;50.580;8.818;2022-11-09T14:22:55;3.37;;;1.50;;
10920;SDS011;5513;50.580;8.818;2022-11-09T14:25:26;4.00;;;2.40;;
10920;SDS011;5513;50.580;8.818;2022-11-09T14:27:57;4.20;;;1.37;;
10920;SDS011;5513;50.580;8.818;2022-11-09T14:30:26;3.50;;;1.30;;
10920;SDS011;5513;50.580;8.818;2022-11-09T14:32:57;5.27;;;1.70;;
10920;SDS011;5513;50.580;8.818;2022-11-09T14:35:27;5.70;;;1.73;;
10920;SDS011;5513;50.580;8.818;2022-11-09T14:37:57;3.60;;;1.60;;
10920;SDS011;5513;50.580;8.818;2022-11-09T14:40:30;6.03;;;1.77;;
10920;SDS011;5513;50.580;8.818;2022-11-09T14:43:00;4.00;;;1.33;;
10920;SDS011;5513;50.580;8.818;2022-11-09T14:45:45;6.17;;;1.87;;
10920;SDS011;5513;50.580;8.818;2022-11-09T14:48:15;3.77;;;1.50;;
10920;SDS011;5513;50.580;8.818;2022-11-09T14:50:46;2.37;;;1.47;;
10920;SDS011;5513;50.580;8.818;2022-11-09T14:53:15;4.90;;;1.53;;
10920;SDS011;5513;50.580;8.818;2022-11-09T14:55:49;2.70;;;1.20;;
10920;SDS011;5513;50.580;8.818;2022-11-09T14:58:21;4.33;;;1.70;;
10920;SDS011;5513;50.580;8.818;2022-11-09T15:01:07;4.37;;;2.70;;
10920;SDS011;5513;50.580;8.818;2022-11-09T15:03:37;4.80;;;1.30;;
10920;SDS011;5513;50.580;8.818;2022-11-09T15:06:06;4.77;;;1.73;;
10920;SDS011;5513;50.580;8.818;2022-11-09T15:08:45;3.73;;;2.10;;
10920;SDS011;5513;50.580;8.818;2022-11-09T15:11:19;4.43;;;1.50;;
10920;SDS011;5513;50.580;8.818;2022-11-09T15:14:08;3.13;;;1.70;;
10920;SDS011;5513;50.580;8.818;2022-11-09T15:16:38;5.40;;;1.80;;
10920;SDS011;5513;50.580;8.818;2022-11-09T15:21:57;3.47;;;1.70;;
10920;SDS011;5513;50.580;8.818;2022-11-09T15:24:26;4.83;;;2.20;;
10920;SDS011;5513;50.580;8.818;2022-11-09T15:26:58;5.50;;;1.70;;
10920;SDS011;5513;50.580;8.818;2022-11-09T15:29:28;6.43;;;1.60;;
10920;SDS011;5513;50.580;8.818;2022-11-09T15:32:14;4.50;;;1.80;;
10920;SDS011;5513;50.580;8.818;2022-11-09T15:34:51;7.50;;;1.57;;
10920;SDS011;5513;50.580;8.818;2022-11-09T15:37:23;3.93;;;1.60;;
10920;SDS011;5513;50.580;8.818;2022-11-09T15:39:54;3.40;;;1.50;;
10920;SDS011;5513;50.580;8.818;2022-11-09T15:42:30;5.07;;;1.80;;
10920;SDS011;5513;50.580;8.818;2022-11-09T15:44:58;3.13;;;1.50;;
10920;SDS011;5513;50.580;8.818;2022-11-09T15:47:29;8.53;;;1.90;;
10920;SDS011;5513;50.580;8.818;2022-11-09T15:50:00;5.77;;;1.37;;
10920;SDS011;5513;50.580;8.818;2022-11-09T15:52:31;6.00;;;1.67;;
10920;SDS011;5513;50.580;8.818;2022-11-09T15:54:59;3.67;;;1.40;;
10920;SDS011;5513;50.580;8.818;2022-11-09T15:57:30;4.93;;;1.57;;
10920;SDS011;5513;50.580;8.818;2022-11-09T15:59:59;4.47;;;1.87;;
10920;SDS011;5513;50.580;8.818;2022-11-09T16:02:37;5.87;;;1.50;;